createdAt,value
2023-02-22T00:00:42.962Z,83.35
2023-02-22T00:01:51.144Z,83.95
2023-02-22T00:02:59.745Z,85.93
2023-02-22T00:04:02.548Z,87.99
2023-02-22T00:05:05.359Z,87.92
2023-02-22T00:06:07.092Z,86.99
2023-02-22T00:07:09.667Z,86.70
2023-02-22T00:08:11.626Z,85.87
2023-02-22T00:09:20.319Z,84.87
2023-02-22T00:10:24.805Z,84.29
2023-02-22T00:11:27.588Z,83.28
2023-02-22T00:12:29.268Z,82.50
2023-02-22T00:13:31.785Z,84.68
2023-02-22T00:14:33.589Z,86.13
2023-02-22T00:15:36.874Z,86.01
2023-02-22T00:16:38.811Z,85.91
2023-02-22T00:17:41.351Z,85.03
2023-02-22T00:18:44.358Z,83.83
2023-02-22T00:19:49.389Z,82.99
2023-02-22T00:20:51.386Z,82.84
2023-02-22T00:21:54.192Z,82.95
2023-02-22T00:22:55.840Z,82.75
2023-02-22T00:23:58.260Z,82.46
2023-02-22T00:24:59.818Z,83.57
2023-02-22T00:26:03.773Z,83.85
2023-02-22T00:27:05.276Z,83.74
2023-02-22T00:28:07.973Z,83.30
2023-02-22T00:29:09.463Z,82.97
2023-02-22T00:30:19.028Z,82.18
2023-02-22T00:31:21.722Z,82.83
2023-02-22T00:32:27.130Z,83.13
2023-02-22T00:33:29.610Z,83.15
2023-02-22T00:34:31.122Z,82.83
2023-02-22T00:35:33.608Z,82.80
2023-02-22T00:36:35.067Z,83.56
2023-02-22T00:37:41.753Z,85.00
2023-02-22T00:38:43.293Z,84.33
2023-02-22T00:39:47.813Z,87.70
2023-02-22T00:40:49.287Z,91.01
2023-02-22T00:41:53.079Z,91.60
2023-02-22T00:42:54.623Z,92.94
2023-02-22T00:43:57.095Z,93.72
2023-02-22T00:44:58.576Z,92.89
2023-02-22T00:46:01.216Z,91.46
2023-02-22T00:47:05.131Z,90.08
2023-02-22T00:48:08.545Z,88.86
2023-02-22T00:49:10.095Z,88.04
2023-02-22T00:50:13.271Z,88.21
2023-02-22T00:51:15.084Z,89.20
2023-02-22T00:52:17.767Z,89.27
2023-02-22T00:53:20.787Z,88.86
2023-02-22T00:54:23.239Z,88.07
2023-02-22T00:55:26.466Z,87.70
2023-02-22T00:56:29.133Z,88.22
2023-02-22T00:57:31.971Z,88.31
2023-02-22T00:58:34.465Z,86.70
2023-02-22T00:59:35.955Z,85.35
2023-02-22T01:00:41.796Z,84.55
2023-02-22T01:01:43.335Z,84.14
2023-02-22T01:02:50.004Z,85.02
2023-02-22T01:03:51.767Z,86.13
2023-02-22T01:04:54.491Z,85.79
2023-02-22T01:05:56.384Z,85.80
2023-02-22T01:07:00.783Z,84.65
2023-02-22T01:08:03.129Z,84.77
2023-02-22T01:09:08.310Z,84.83
2023-02-22T01:10:12.205Z,86.03
2023-02-22T01:11:16.610Z,85.84
2023-02-22T01:12:18.334Z,85.12
2023-02-22T01:13:23.073Z,84.91
2023-02-22T01:14:26.643Z,84.26
2023-02-22T01:15:30.925Z,84.59
2023-02-22T01:16:32.576Z,83.76
2023-02-22T01:17:35.062Z,82.95
2023-02-22T01:18:37.219Z,82.24
2023-02-22T01:19:42.432Z,81.80
2023-02-22T01:20:47.914Z,80.72
2023-02-22T01:21:51.317Z,80.79
2023-02-22T01:22:54.852Z,80.66
2023-02-22T01:23:57.298Z,80.95
2023-02-22T01:24:58.824Z,81.13
2023-02-22T01:26:01.389Z,80.86
2023-02-22T01:27:02.904Z,80.72
2023-02-22T01:28:07.890Z,80.37
2023-02-22T01:29:15.200Z,80.32
2023-02-22T01:30:22.119Z,79.78
2023-02-22T01:31:24.036Z,79.66
2023-02-22T01:32:26.624Z,79.27
2023-02-22T01:33:28.128Z,79.06
2023-02-22T01:34:31.056Z,79.19
2023-02-22T01:35:34.540Z,79.78
2023-02-22T01:36:37.040Z,79.99
2023-02-22T01:37:38.582Z,80.08
2023-02-22T01:38:41.331Z,80.02
2023-02-22T01:39:42.871Z,79.92
2023-02-22T01:40:49.992Z,79.62
2023-02-22T01:41:53.626Z,79.42
2023-02-22T01:42:58.374Z,79.35
2023-02-22T01:44:20.687Z,79.57
2023-02-22T01:45:52.941Z,79.57
2023-02-22T01:46:55.501Z,79.39
2023-02-22T01:47:59.718Z,79.60
2023-02-22T01:49:07.243Z,79.33
2023-02-22T01:50:10.679Z,79.19
2023-02-22T01:51:17.578Z,78.97
2023-02-22T01:52:21.033Z,79.07
2023-02-22T01:53:30.542Z,79.71
2023-02-22T01:54:38.635Z,79.47
2023-02-22T01:55:40.578Z,79.23
2023-02-22T01:56:50.428Z,79.58
2023-02-22T01:57:51.929Z,79.27
2023-02-22T01:58:59.032Z,79.53
2023-02-22T02:00:10.067Z,79.49
2023-02-22T02:01:12.920Z,79.43
2023-02-22T02:02:14.973Z,78.99
2023-02-22T02:03:22.426Z,79.19
2023-02-22T02:04:25.493Z,79.25
2023-02-22T02:05:31.431Z,79.25
2023-02-22T02:06:35.883Z,78.98
2023-02-22T02:07:39.442Z,79.63
2023-02-22T02:08:51.551Z,79.42
2023-02-22T02:09:59.017Z,79.93
2023-02-22T02:11:02.400Z,80.12
2023-02-22T02:12:06.431Z,79.97
2023-02-22T02:13:10.123Z,80.05
2023-02-22T02:14:14.129Z,79.82
2023-02-22T02:15:21.401Z,79.48
2023-02-22T02:16:26.520Z,79.39
2023-02-22T02:17:28.085Z,79.41
2023-02-22T02:18:32.605Z,79.46
2023-02-22T02:19:48.357Z,80.59
2023-02-22T02:21:05.850Z,80.78
2023-02-22T02:22:26.624Z,80.67
2023-02-22T02:23:50.245Z,80.53
2023-02-22T02:25:18.200Z,80.04
2023-02-22T02:26:44.085Z,80.44
2023-02-22T02:28:01.504Z,81.23
2023-02-22T02:29:42.450Z,81.38
2023-02-22T02:31:02.321Z,81.40
2023-02-22T02:32:23.781Z,81.08
2023-02-22T02:33:32.604Z,80.65
2023-02-22T02:34:39.935Z,80.73
2023-02-22T02:35:52.054Z,80.57
2023-02-22T02:37:02.952Z,80.40
2023-02-22T02:38:08.479Z,80.20
2023-02-22T02:39:20.571Z,81.03
2023-02-22T02:40:30.563Z,81.53
2023-02-22T02:41:35.816Z,81.74
2023-02-22T02:42:44.711Z,81.67
2023-02-22T02:43:53.324Z,81.49
2023-02-22T02:45:02.618Z,81.05
2023-02-22T02:46:08.982Z,81.10
2023-02-22T02:47:15.686Z,80.60
2023-02-22T02:48:23.473Z,80.68
2023-02-22T02:49:31.507Z,80.73
2023-02-22T02:50:41.585Z,80.54
2023-02-22T02:51:50.253Z,80.20
2023-02-22T02:52:55.464Z,79.93
2023-02-22T02:53:59.007Z,80.21
2023-02-22T02:55:02.820Z,80.06
2023-02-22T02:56:06.395Z,79.88
2023-02-22T02:57:09.430Z,80.07
2023-02-22T02:58:19.929Z,80.21
2023-02-22T02:59:28.017Z,80.40
2023-02-22T03:00:39.216Z,80.35
2023-02-22T03:01:54.926Z,80.67
2023-02-22T03:03:10.345Z,80.82
2023-02-22T03:04:38.841Z,80.85
2023-02-22T03:06:08.378Z,80.57
2023-02-22T03:07:23.035Z,80.37
2023-02-22T03:08:34.744Z,80.23
2023-02-22T03:09:43.894Z,80.24
2023-02-22T03:10:53.862Z,80.07
2023-02-22T03:12:08.746Z,79.63
2023-02-22T03:13:17.446Z,79.15
2023-02-22T03:14:28.227Z,79.54
2023-02-22T03:15:36.452Z,79.86
2023-02-22T03:16:47.104Z,80.20
2023-02-22T03:17:54.234Z,80.12
2023-02-22T03:19:04.650Z,80.27
2023-02-22T03:20:12.716Z,80.07
2023-02-22T03:21:25.342Z,80.12
2023-02-22T03:22:32.560Z,80.38
2023-02-22T03:23:44.834Z,80.22
2023-02-22T03:24:53.055Z,80.16
2023-02-22T03:26:02.083Z,80.02
2023-02-22T03:27:09.523Z,80.20
2023-02-22T03:28:16.572Z,84.70
2023-02-22T03:29:21.637Z,88.79
2023-02-22T03:30:29.097Z,89.22
2023-02-22T03:31:37.188Z,89.72
2023-02-22T03:32:45.678Z,89.98
2023-02-22T03:33:54.367Z,89.71
2023-02-22T03:34:59.493Z,88.11
2023-02-22T03:36:10.911Z,87.29
2023-02-22T03:37:16.979Z,87.19
2023-02-22T03:38:21.794Z,88.39
2023-02-22T03:39:30.938Z,88.97
2023-02-22T03:40:37.630Z,88.62
2023-02-22T03:41:40.597Z,87.62
2023-02-22T03:42:48.828Z,86.48
2023-02-22T03:43:54.848Z,86.38
2023-02-22T03:45:01.133Z,86.08
2023-02-22T03:46:03.862Z,84.91
2023-02-22T03:47:10.764Z,84.77
2023-02-22T03:48:19.462Z,84.40
2023-02-22T03:49:29.790Z,83.97
2023-02-22T03:50:35.688Z,84.20
2023-02-22T03:51:40.136Z,84.00
2023-02-22T03:52:43.148Z,83.59
2023-02-22T03:53:45.690Z,83.21
2023-02-22T03:54:47.196Z,83.42
2023-02-22T03:55:51.622Z,83.39
2023-02-22T03:56:56.054Z,83.48
2023-02-22T03:58:00.125Z,83.62
2023-02-22T03:59:02.854Z,84.76
2023-02-22T04:00:07.764Z,86.02
2023-02-22T04:01:09.764Z,89.54
2023-02-22T04:02:12.451Z,93.17
2023-02-22T04:03:14.011Z,94.79
2023-02-22T04:04:18.320Z,94.59
2023-02-22T04:05:20.727Z,93.70
2023-02-22T04:06:23.462Z,92.04
2023-02-22T04:07:26.362Z,91.19
2023-02-22T04:08:28.770Z,89.73
2023-02-22T04:09:30.565Z,88.26
2023-02-22T04:10:35.470Z,87.14
2023-02-22T04:11:37.677Z,86.45
2023-02-22T04:12:40.237Z,85.87
2023-02-22T04:13:41.777Z,85.32
2023-02-22T04:14:44.447Z,84.78
2023-02-22T04:15:45.920Z,84.24
2023-02-22T04:16:48.383Z,83.74
2023-02-22T04:17:49.900Z,83.47
2023-02-22T04:18:52.755Z,83.41
2023-02-22T04:19:54.224Z,83.20
2023-02-22T04:20:56.720Z,83.31
2023-02-22T04:21:58.484Z,83.33
2023-02-22T04:23:02.447Z,83.26
2023-02-22T04:24:04.565Z,82.91
2023-02-22T04:25:08.145Z,82.78
2023-02-22T04:26:09.851Z,82.81
2023-02-22T04:27:12.418Z,83.18
2023-02-22T04:28:14.179Z,84.12
2023-02-22T04:29:16.679Z,84.75
2023-02-22T04:30:19.054Z,84.85
2023-02-22T04:31:21.752Z,84.23
2023-02-22T04:32:23.366Z,83.62
2023-02-22T04:33:25.953Z,83.36
2023-02-22T04:34:27.503Z,83.43
2023-02-22T04:35:30.077Z,83.06
2023-02-22T04:36:31.838Z,83.35
2023-02-22T04:37:34.775Z,83.28
2023-02-22T04:38:37.583Z,83.41
2023-02-22T04:39:40.119Z,83.04
2023-02-22T04:40:41.689Z,82.58
2023-02-22T04:41:44.126Z,82.63
2023-02-22T04:42:45.651Z,82.52
2023-02-22T04:43:48.173Z,82.71
2023-02-22T04:44:49.874Z,83.02
2023-02-22T04:45:52.362Z,82.85
2023-02-22T04:46:53.914Z,82.41
2023-02-22T04:47:56.413Z,83.29
2023-02-22T04:49:00.693Z,83.94
2023-02-22T04:50:03.324Z,85.28
2023-02-22T04:51:05.775Z,86.00
2023-02-22T04:52:08.210Z,86.03
2023-02-22T04:53:09.850Z,85.50
2023-02-22T04:54:14.080Z,84.72
2023-02-22T04:55:16.620Z,84.92
2023-02-22T04:56:19.590Z,84.97
2023-02-22T04:57:21.358Z,84.66
2023-02-22T04:58:23.835Z,84.35
2023-02-22T04:59:25.397Z,83.60
2023-02-22T05:00:27.969Z,83.61
2023-02-22T05:01:33.582Z,83.30
2023-02-22T05:02:36.127Z,83.16
2023-02-22T05:03:38.195Z,82.95
2023-02-22T05:04:40.736Z,82.68
2023-02-22T05:05:42.419Z,82.32
2023-02-22T05:06:44.884Z,82.32
2023-02-22T05:07:46.361Z,82.04
2023-02-22T05:08:48.849Z,82.07
2023-02-22T05:09:51.646Z,83.00
2023-02-22T05:10:54.824Z,83.19
2023-02-22T05:11:56.317Z,83.30
2023-02-22T05:12:59.014Z,83.17
2023-02-22T05:14:00.583Z,83.00
2023-02-22T05:15:03.073Z,82.78
2023-02-22T05:16:05.415Z,83.38
2023-02-22T05:17:07.956Z,83.81
2023-02-22T05:18:09.455Z,84.30
2023-02-22T05:19:11.949Z,86.23
2023-02-22T05:20:21.900Z,88.17
2023-02-22T05:21:24.593Z,89.38
2023-02-22T05:22:26.125Z,88.33
2023-02-22T05:23:28.575Z,86.70
2023-02-22T05:24:30.100Z,85.70
2023-02-22T05:25:34.426Z,85.13
2023-02-22T05:26:35.919Z,84.34
2023-02-22T05:27:38.359Z,84.31
2023-02-22T05:28:40.879Z,84.39
2023-02-22T05:29:42.367Z,86.34
2023-02-22T05:30:44.992Z,86.86
2023-02-22T05:31:46.800Z,87.63
2023-02-22T05:32:49.503Z,88.15
2023-02-22T05:33:50.987Z,87.49
2023-02-22T05:34:53.372Z,87.01
2023-02-22T05:35:56.012Z,86.46
2023-02-22T05:36:58.462Z,87.83
2023-02-22T05:38:03.118Z,88.82
2023-02-22T05:39:06.393Z,88.91
2023-02-22T05:40:08.727Z,89.25
2023-02-22T05:41:14.141Z,88.66
2023-02-22T05:42:15.609Z,87.43
2023-02-22T05:43:18.343Z,86.80
2023-02-22T05:44:20.112Z,86.09
2023-02-22T05:45:24.741Z,86.25
2023-02-22T05:46:26.516Z,86.07
2023-02-22T05:47:28.944Z,85.73
2023-02-22T05:48:31.157Z,84.92
2023-02-22T05:49:33.564Z,84.48
2023-02-22T05:50:35.191Z,84.06
2023-02-22T05:51:37.695Z,83.88
2023-02-22T05:52:39.340Z,84.00
2023-02-22T05:53:42.504Z,83.88
2023-02-22T05:54:44.053Z,83.41
2023-02-22T05:55:46.698Z,83.18
2023-02-22T05:56:49.616Z,82.96
2023-02-22T05:57:53.139Z,82.72
2023-02-22T05:58:55.155Z,82.61
2023-02-22T05:59:57.935Z,82.85
2023-02-22T06:01:01.140Z,82.85
2023-02-22T06:02:04.744Z,83.41
2023-02-22T06:03:09.612Z,84.11
2023-02-22T06:04:11.098Z,85.00
2023-02-22T06:05:14.009Z,84.78
2023-02-22T06:06:16.121Z,84.28
2023-02-22T06:07:19.208Z,83.97
2023-02-22T06:08:20.670Z,83.78
2023-02-22T06:09:23.152Z,83.48
2023-02-22T06:10:25.944Z,83.04
2023-02-22T06:11:28.400Z,83.14
2023-02-22T06:12:31.309Z,82.95
2023-02-22T06:13:34.003Z,82.58
2023-02-22T06:14:36.157Z,82.33
2023-02-22T06:15:38.614Z,82.35
2023-02-22T06:16:40.158Z,82.17
2023-02-22T06:17:42.901Z,82.36
2023-02-22T06:18:44.416Z,82.78
2023-02-22T06:19:47.172Z,83.06
2023-02-22T06:20:48.700Z,84.09
2023-02-22T06:21:51.653Z,85.72
2023-02-22T06:22:56.095Z,88.23
2023-02-22T06:23:58.537Z,90.56
2023-02-22T06:25:02.186Z,92.12
2023-02-22T06:26:04.892Z,92.44
2023-02-22T06:27:06.421Z,91.37
2023-02-22T06:28:10.808Z,91.52
2023-02-22T06:29:12.502Z,91.43
2023-02-22T06:30:17.121Z,90.69
2023-02-22T06:31:18.944Z,90.65
2023-02-22T06:32:21.645Z,90.87
2023-02-22T06:33:23.169Z,90.77
2023-02-22T06:34:25.608Z,91.42
2023-02-22T06:35:27.214Z,91.43
2023-02-22T06:36:29.814Z,90.06
2023-02-22T06:37:33.427Z,89.82
2023-02-22T06:38:35.835Z,88.97
2023-02-22T06:39:37.414Z,88.32
2023-02-22T06:40:39.830Z,87.71
2023-02-22T06:41:42.443Z,86.86
2023-02-22T06:42:45.484Z,86.55
2023-02-22T06:43:49.514Z,86.10
2023-02-22T06:44:51.854Z,85.68
2023-02-22T06:45:54.547Z,85.41
2023-02-22T06:46:56.340Z,85.48
2023-02-22T06:47:58.796Z,86.16
2023-02-22T06:49:00.300Z,86.09
2023-02-22T06:51:04.701Z,85.37
2023-02-22T06:52:08.624Z,85.07
2023-02-22T06:53:10.118Z,84.67
2023-02-22T06:54:12.596Z,84.67
2023-02-22T06:55:17.775Z,83.72
2023-02-22T06:56:20.351Z,83.64
2023-02-22T06:57:21.823Z,83.09
2023-02-22T06:58:24.286Z,82.98
2023-02-22T06:59:28.922Z,83.02
2023-02-22T07:00:32.155Z,82.88
2023-02-22T07:01:34.596Z,82.69
2023-02-22T07:02:36.440Z,82.74
2023-02-22T07:03:39.192Z,82.97
2023-02-22T07:04:43.383Z,83.29
2023-02-22T07:05:46.571Z,83.95
2023-02-22T07:06:49.376Z,84.52
2023-02-22T07:07:54.352Z,85.78
2023-02-22T07:08:56.043Z,86.62
2023-02-22T07:09:58.530Z,86.78
2023-02-22T07:11:01.025Z,86.37
2023-02-22T07:12:02.514Z,85.77
2023-02-22T07:13:06.380Z,85.08
2023-02-22T07:14:07.931Z,85.98
2023-02-22T07:15:11.781Z,86.53
2023-02-22T07:16:14.223Z,85.93
2023-02-22T07:17:15.872Z,85.46
2023-02-22T07:18:18.390Z,86.07
2023-02-22T07:19:19.916Z,86.67
2023-02-22T07:20:24.876Z,87.53
2023-02-22T07:21:26.408Z,87.53
2023-02-22T07:22:28.829Z,88.28
2023-02-22T07:23:31.475Z,87.97
2023-02-22T07:24:35.096Z,87.36
2023-02-22T07:25:36.652Z,87.80
2023-02-22T07:26:41.304Z,87.00
2023-02-22T07:27:43.108Z,87.15
2023-02-22T07:28:45.592Z,88.19
2023-02-22T07:29:48.051Z,89.20
2023-02-22T07:30:52.166Z,89.74
2023-02-22T07:31:53.687Z,88.94
2023-02-22T07:32:56.281Z,87.82
2023-02-22T07:33:57.792Z,87.10
2023-02-22T07:35:02.781Z,86.36
2023-02-22T07:36:06.048Z,85.43
2023-02-22T07:37:08.489Z,84.48
2023-02-22T07:38:10.201Z,83.73
2023-02-22T07:39:12.644Z,83.84
2023-02-22T07:40:15.731Z,83.67
2023-02-22T07:41:18.494Z,83.21
2023-02-22T07:42:20.206Z,82.88
2023-02-22T07:43:24.544Z,82.13
2023-02-22T07:44:26.125Z,82.16
2023-02-22T07:45:30.209Z,82.46
2023-02-22T07:46:33.837Z,82.76
2023-02-22T07:47:36.249Z,82.71
2023-02-22T07:48:37.892Z,82.65
2023-02-22T07:49:40.420Z,82.10
2023-02-22T07:51:04.075Z,81.45
2023-02-22T07:52:07.813Z,81.85
2023-02-22T07:53:14.251Z,84.17
2023-02-22T07:54:15.772Z,85.67
2023-02-22T07:55:20.889Z,85.78
2023-02-22T07:56:23.464Z,86.34
2023-02-22T07:57:25.007Z,87.41
2023-02-22T07:58:30.883Z,88.45
2023-02-22T07:59:33.890Z,88.81
2023-02-22T08:00:37.890Z,87.77
2023-02-22T08:01:41.068Z,86.82
2023-02-22T08:02:44.225Z,85.59
2023-02-22T08:03:47.849Z,85.16
2023-02-22T08:04:49.315Z,85.08
2023-02-22T08:05:54.892Z,84.68
2023-02-22T08:06:57.317Z,84.72
2023-02-22T08:07:58.829Z,85.83
2023-02-22T08:09:01.247Z,86.17
2023-02-22T08:10:06.718Z,86.90
2023-02-22T08:11:11.176Z,86.54
2023-02-22T08:12:12.707Z,86.77
2023-02-22T08:13:15.933Z,88.55
2023-02-22T08:14:18.605Z,88.50
2023-02-22T08:15:22.532Z,87.88
2023-02-22T08:16:25.105Z,88.09
2023-02-22T08:17:28.233Z,87.26
2023-02-22T08:18:30.679Z,86.39
2023-02-22T08:19:32.265Z,85.95
2023-02-22T08:20:34.649Z,85.93
2023-02-22T08:21:37.075Z,85.63
2023-02-22T08:22:38.643Z,85.22
2023-02-22T08:23:41.100Z,85.06
2023-02-22T08:24:42.587Z,84.96
2023-02-22T08:25:45.126Z,84.86
2023-02-22T08:26:48.241Z,84.01
2023-02-22T08:27:49.761Z,82.91
2023-02-22T08:28:53.090Z,82.03
2023-02-22T08:29:55.842Z,81.66
2023-02-22T08:30:58.259Z,81.70
2023-02-22T08:32:03.162Z,81.62
2023-02-22T08:33:07.360Z,81.83
2023-02-22T08:34:08.904Z,81.54
2023-02-22T08:35:13.626Z,81.83
2023-02-22T08:36:16.043Z,82.12
2023-02-22T08:37:18.792Z,81.89
2023-02-22T08:38:23.764Z,80.90
2023-02-22T08:39:25.343Z,80.26
2023-02-22T08:40:31.150Z,79.92
2023-02-22T08:41:33.689Z,79.82
2023-02-22T08:42:35.157Z,79.65
2023-02-22T08:43:40.698Z,79.05
2023-02-22T08:44:45.091Z,78.96
2023-02-22T08:45:48.148Z,78.81
2023-02-22T08:46:49.686Z,79.45
2023-02-22T08:47:53.891Z,80.38
2023-02-22T08:49:00.858Z,81.04
2023-02-22T08:50:02.661Z,82.23
2023-02-22T08:51:05.392Z,83.71
2023-02-22T08:52:06.941Z,85.54
2023-02-22T08:53:10.571Z,86.49
2023-02-22T08:54:12.575Z,86.60
2023-02-22T08:55:15.106Z,87.63
2023-02-22T08:56:16.699Z,87.17
2023-02-22T08:57:21.585Z,86.37
2023-02-22T08:58:24.125Z,86.62
2023-02-22T08:59:25.751Z,86.76
2023-02-22T09:00:29.565Z,87.60
2023-02-22T09:01:33.604Z,89.06
2023-02-22T09:02:36.263Z,89.28
2023-02-22T09:03:38.765Z,88.30
2023-02-22T09:04:41.699Z,87.35
2023-02-22T09:05:45.314Z,86.23
2023-02-22T09:06:51.690Z,85.96
2023-02-22T09:07:54.398Z,85.39
2023-02-22T09:08:56.887Z,83.44
2023-02-22T09:09:58.435Z,82.12
2023-02-22T09:11:00.934Z,80.78
2023-02-22T09:12:02.773Z,82.49
2023-02-22T09:13:05.494Z,85.09
2023-02-22T09:14:06.996Z,86.17
2023-02-22T09:15:10.494Z,86.44
2023-02-22T09:16:13.139Z,87.74
2023-02-22T09:17:14.994Z,87.49
2023-02-22T09:18:18.037Z,85.68
2023-02-22T09:19:19.675Z,85.35
2023-02-22T09:20:25.449Z,85.77
2023-02-22T09:21:26.937Z,84.02
2023-02-22T09:22:29.350Z,82.46
2023-02-22T09:23:32.542Z,82.72
2023-02-22T09:24:34.536Z,83.56
2023-02-22T09:25:38.759Z,83.91
2023-02-22T09:26:40.372Z,86.45
2023-02-22T09:27:44.022Z,87.64
2023-02-22T09:28:48.535Z,86.40
2023-02-22T09:29:50.158Z,86.00
2023-02-22T09:30:53.432Z,84.46
2023-02-22T09:31:56.247Z,83.15
2023-02-22T09:33:01.434Z,81.68
2023-02-22T09:34:04.402Z,81.25
2023-02-22T09:35:08.725Z,81.44
2023-02-22T09:36:11.586Z,80.94
2023-02-22T09:37:14.462Z,81.05
2023-02-22T09:38:19.685Z,82.36
2023-02-22T09:39:21.688Z,82.22
2023-02-22T09:40:29.989Z,82.95
2023-02-22T09:41:36.951Z,82.88
2023-02-22T09:42:45.586Z,82.83
2023-02-22T09:43:52.300Z,82.31
2023-02-22T09:45:03.880Z,83.57
2023-02-22T09:46:19.120Z,83.94
2023-02-22T09:47:32.314Z,82.55
2023-02-22T09:48:36.386Z,83.72
2023-02-22T09:49:47.472Z,84.16
2023-02-22T09:50:52.491Z,83.61
2023-02-22T09:52:01.680Z,84.32
2023-02-22T09:53:07.263Z,84.06
2023-02-22T09:54:18.691Z,83.49
2023-02-22T09:55:34.243Z,83.76
2023-02-22T09:56:36.905Z,84.48
2023-02-22T09:57:42.893Z,84.30
2023-02-22T09:58:46.482Z,83.84
2023-02-22T10:00:01.434Z,83.63
2023-02-22T10:01:19.982Z,84.75
2023-02-22T10:02:29.811Z,86.39
2023-02-22T10:03:37.725Z,86.76
2023-02-22T10:04:44.821Z,86.90
2023-02-22T10:05:54.493Z,85.63
2023-02-22T10:07:12.643Z,86.99
2023-02-22T10:08:16.234Z,86.75
2023-02-22T10:09:19.044Z,86.87
2023-02-22T10:10:24.007Z,86.49
2023-02-22T10:11:45.130Z,86.15
2023-02-22T10:13:02.101Z,86.72
2023-02-22T10:14:22.691Z,85.32
2023-02-22T10:15:42.548Z,85.12
2023-02-22T10:16:53.284Z,86.07
2023-02-22T10:18:00.545Z,85.55
2023-02-22T10:19:11.043Z,85.72
2023-02-22T10:20:22.760Z,84.63
2023-02-22T10:21:37.874Z,84.49
2023-02-22T10:22:52.720Z,84.25
2023-02-22T10:24:02.142Z,85.00
2023-02-22T10:25:09.754Z,86.37
2023-02-22T10:26:17.678Z,86.13
2023-02-22T10:27:22.321Z,85.57
2023-02-22T10:28:30.943Z,86.24
2023-02-22T10:29:39.843Z,85.48
2023-02-22T10:30:49.214Z,85.61
2023-02-22T10:31:57.727Z,87.87
2023-02-22T10:33:08.066Z,87.81
2023-02-22T10:34:16.418Z,86.56
2023-02-22T10:35:23.738Z,85.31
2023-02-22T10:36:27.391Z,85.20
2023-02-22T10:37:32.254Z,84.97
2023-02-22T10:38:36.517Z,84.55
2023-02-22T10:39:39.829Z,83.78
2023-02-22T10:40:47.745Z,83.79
2023-02-22T10:41:52.666Z,85.43
2023-02-22T10:42:55.546Z,85.84
2023-02-22T10:43:58.072Z,85.81
2023-02-22T10:45:00.919Z,84.93
2023-02-22T10:46:08.120Z,84.66
2023-02-22T10:47:11.715Z,83.14
2023-02-22T10:48:18.635Z,82.66
2023-02-22T10:49:24.697Z,80.46
2023-02-22T10:50:28.026Z,80.89
2023-02-22T10:51:33.325Z,81.78
2023-02-22T10:52:34.966Z,80.55
2023-02-22T10:53:39.438Z,81.74
2023-02-22T10:54:45.307Z,80.38
2023-02-22T10:56:07.256Z,80.92
2023-02-22T10:57:13.475Z,82.32
2023-02-22T10:58:16.048Z,82.42
2023-02-22T10:59:29.269Z,81.62
2023-02-22T11:00:33.094Z,83.20
2023-02-22T11:01:41.563Z,83.19
2023-02-22T11:02:52.561Z,83.42
2023-02-22T11:04:00.702Z,83.48
2023-02-22T11:05:06.254Z,83.43
2023-02-22T11:06:19.002Z,83.27
2023-02-22T11:07:25.189Z,82.48
2023-02-22T11:08:29.193Z,84.04
2023-02-22T11:09:47.375Z,83.21
2023-02-22T11:10:49.677Z,82.29
2023-02-22T11:12:09.249Z,81.47
2023-02-22T11:13:17.607Z,80.35
2023-02-22T11:14:27.442Z,80.06
2023-02-22T11:15:29.758Z,79.36
2023-02-22T11:16:36.171Z,80.01
2023-02-22T11:17:41.039Z,80.98
2023-02-22T11:18:43.613Z,81.19
2023-02-22T11:19:50.995Z,79.22
2023-02-22T11:21:00.689Z,79.94
2023-02-22T11:22:14.702Z,77.72
2023-02-22T11:23:23.700Z,76.25
2023-02-22T11:24:37.378Z,74.07
2023-02-22T11:25:48.193Z,70.05
2023-02-22T11:26:54.228Z,65.90
2023-02-22T11:28:09.106Z,63.15
2023-02-22T11:29:20.651Z,63.07
2023-02-22T11:30:30.093Z,61.72
2023-02-22T11:31:32.004Z,60.85
2023-02-22T11:32:36.447Z,64.14
2023-02-22T11:33:38.889Z,65.94
2023-02-22T11:34:43.603Z,65.53
2023-02-22T11:35:52.972Z,64.60
2023-02-22T11:36:55.436Z,64.95
2023-02-22T11:38:10.577Z,62.71
2023-02-22T11:39:24.975Z,61.83
2023-02-22T11:40:27.460Z,60.40
2023-02-22T11:41:34.065Z,59.81
2023-02-22T11:42:35.673Z,61.66
2023-02-22T11:43:38.621Z,62.03
2023-02-22T11:44:44.710Z,63.58
2023-02-22T11:46:02.479Z,65.04
2023-02-22T11:47:06.961Z,63.71
2023-02-22T11:48:21.014Z,62.60
2023-02-22T11:49:25.055Z,62.93
2023-02-22T11:50:31.630Z,62.35
2023-02-22T11:51:49.464Z,61.27
2023-02-22T11:53:02.399Z,60.44
2023-02-22T11:54:25.554Z,57.60
2023-02-22T11:55:42.862Z,56.68
2023-02-22T11:56:50.333Z,57.43
2023-02-22T11:58:05.795Z,56.55
2023-02-22T11:59:22.267Z,58.40
2023-02-22T12:00:34.687Z,55.62
2023-02-22T12:01:43.949Z,53.17
2023-02-22T12:03:03.788Z,49.22
2023-02-22T12:04:38.535Z,54.91
2023-02-22T12:06:00.966Z,60.59
2023-02-22T12:07:18.787Z,59.64
2023-02-22T12:08:30.841Z,57.13
2023-02-22T12:09:40.741Z,56.40
2023-02-22T12:10:56.785Z,54.59
2023-02-22T12:12:12.025Z,54.33
2023-02-22T12:13:33.040Z,54.73
2023-02-22T12:14:48.161Z,53.26
2023-02-22T12:15:56.264Z,55.79
2023-02-22T12:17:13.738Z,54.19
2023-02-22T12:18:22.181Z,56.56
2023-02-22T12:19:30.957Z,55.18
2023-02-22T12:20:40.636Z,55.02
2023-02-22T12:21:50.308Z,59.64
2023-02-22T12:23:05.092Z,60.77
2023-02-22T12:24:14.281Z,61.59
2023-02-22T12:25:20.710Z,60.85
2023-02-22T12:26:30.406Z,60.81
2023-02-22T12:27:38.556Z,60.36
2023-02-22T12:28:45.123Z,60.50
2023-02-22T12:29:51.260Z,62.00
2023-02-22T12:31:06.583Z,61.90
2023-02-22T12:32:16.028Z,60.61
2023-02-22T12:33:25.425Z,60.21
2023-02-22T12:34:34.082Z,58.25
2023-02-22T12:35:40.580Z,57.42
2023-02-22T12:36:47.674Z,57.08
2023-02-22T12:37:56.618Z,58.23
2023-02-22T12:39:07.387Z,56.98
2023-02-22T12:40:17.586Z,55.99
2023-02-22T12:41:27.697Z,58.04
2023-02-22T12:42:46.074Z,58.17
2023-02-22T12:43:51.771Z,58.05
2023-02-22T12:45:01.165Z,57.21
2023-02-22T12:46:11.536Z,59.29
2023-02-22T12:47:21.246Z,62.03
2023-02-22T12:48:31.780Z,62.57
2023-02-22T12:49:39.701Z,62.46
2023-02-22T12:50:43.796Z,61.18
2023-02-22T12:51:53.648Z,61.04
2023-02-22T12:53:03.192Z,60.37
2023-02-22T12:54:14.458Z,58.25
2023-02-22T12:55:20.468Z,58.58
2023-02-22T12:56:29.926Z,58.57
2023-02-22T12:57:42.294Z,56.74
2023-02-22T12:58:50.566Z,59.92
2023-02-22T12:59:56.055Z,61.09
2023-02-22T13:01:05.877Z,60.92
2023-02-22T13:02:12.898Z,59.88
2023-02-22T13:03:31.916Z,58.09
2023-02-22T13:04:34.702Z,55.68
2023-02-22T13:05:40.654Z,53.72
2023-02-22T13:06:59.264Z,53.28
2023-02-22T13:08:13.690Z,60.30
2023-02-22T13:09:34.418Z,59.91
2023-02-22T13:10:51.570Z,59.51
2023-02-22T13:12:01.701Z,56.08
2023-02-22T13:13:15.202Z,55.90
2023-02-22T13:14:45.466Z,55.63
2023-02-22T13:15:57.424Z,58.72
2023-02-22T13:17:04.982Z,59.21
2023-02-22T13:18:16.101Z,60.94
2023-02-22T13:19:28.581Z,60.67
2023-02-22T13:20:35.360Z,60.94
2023-02-22T13:21:45.634Z,59.97
2023-02-22T13:22:53.170Z,60.82
2023-02-22T13:24:04.776Z,62.24
2023-02-22T13:25:15.012Z,60.99
2023-02-22T13:26:25.124Z,59.76
2023-02-22T13:27:31.175Z,62.83
2023-02-22T13:28:39.521Z,65.26
2023-02-22T13:29:44.980Z,67.05
2023-02-22T13:31:01.567Z,67.26
2023-02-22T13:32:14.620Z,67.23
2023-02-22T13:33:32.326Z,68.90
2023-02-22T13:34:48.099Z,70.29
2023-02-22T13:36:20.464Z,70.90
2023-02-22T13:37:38.306Z,70.02
2023-02-22T13:39:06.164Z,69.91
2023-02-22T13:40:26.449Z,69.87
2023-02-22T13:41:44.769Z,70.03
2023-02-22T13:43:02.573Z,69.35
2023-02-22T13:44:41.156Z,67.21
2023-02-22T13:46:12.476Z,67.64
2023-02-22T13:47:34.379Z,67.91
2023-02-22T13:49:09.359Z,67.74
2023-02-22T13:50:30.222Z,69.76
2023-02-22T13:51:43.819Z,68.86
2023-02-22T13:52:48.632Z,67.97
2023-02-22T13:53:56.350Z,66.94
2023-02-22T13:55:02.066Z,67.05
2023-02-22T13:56:04.034Z,66.07
2023-02-22T13:57:19.385Z,66.60
2023-02-22T13:58:20.976Z,68.45
2023-02-22T13:59:30.371Z,69.22
2023-02-22T14:00:52.079Z,68.68
2023-02-22T14:01:54.968Z,67.69
2023-02-22T14:03:03.402Z,67.88
2023-02-22T14:04:39.556Z,70.02
2023-02-22T14:05:49.906Z,70.49
2023-02-22T14:06:52.617Z,69.87
2023-02-22T14:07:54.877Z,70.92
2023-02-22T14:08:58.512Z,70.64
2023-02-22T14:10:01.704Z,69.18
2023-02-22T14:11:06.129Z,69.26
2023-02-22T14:12:09.100Z,70.18
2023-02-22T14:13:12.518Z,72.20